Time;durP1;ratioP1;P1;durP2;ratioP2;P2;SDS_P1;SDS_P2;PMS_P1;PMS_P2;Temp;Humidity;BMP_temperature;BMP_pressure;BME280_temperature;BME280_humidity;BME280_pressure;Samples;Min_cycle;Max_cycle;Signal;HPM_P1;HPM_P2
2021/09/23 00:01:29;;;;;;;21.13;11.73;;;;;;;;;;5032144;28;20083;-57
2021/09/23 00:04:14;;;;;;;18.23;10.95;;;;;;;;;;5032418;28;20057;-56
2021/09/23 00:06:40;;;;;;;16.90;10.80;;;;;;;;;;5014261;28;20029;-56
2021/09/23 00:09:05;;;;;;;18.08;10.30;;;;;;;;;;5032415;28;20036;-56
2021/09/23 00:11:30;;;;;;;14.98;9.80;;;;;;;;;;5032017;28;20029;-55
2021/09/23 00:13:58;;;;;;;12.85;7.53;;;;;;;;;;5014806;28;20415;-55
2021/09/23 00:16:23;;;;;;;12.18;7.75;;;;;;;;;;5032007;28;20038;-56
2021/09/23 00:18:48;;;;;;;12.98;7.78;;;;;;;;;;5032234;28;20035;-56
2021/09/23 00:21:14;;;;;;;11.75;8.15;;;;;;;;;;5031841;28;20079;-56
2021/09/23 00:23:39;;;;;;;13.65;8.90;;;;;;;;;;5014446;28;20049;-56
2021/09/23 00:26:04;;;;;;;11.60;7.88;;;;;;;;;;5014044;28;20029;-56
2021/09/23 00:28:29;;;;;;;14.07;8.80;;;;;;;;;;5032208;28;20041;-56
2021/09/23 00:30:55;;;;;;;16.00;8.50;;;;;;;;;;5031843;28;20040;-57
2021/09/23 00:33:20;;;;;;;13.02;9.23;;;;;;;;;;5032053;28;20024;-57
2021/09/23 00:35:45;;;;;;;15.82;8.60;;;;;;;;;;5031914;28;20037;-55
2021/09/23 00:38:10;;;;;;;13.30;8.32;;;;;;;;;;5032285;28;20109;-55
2021/09/23 00:40:36;;;;;;;12.45;8.32;;;;;;;;;;5031782;28;20150;-56
2021/09/23 00:43:02;;;;;;;12.05;8.10;;;;;;;;;;5032225;28;20601;-55
2021/09/23 00:45:27;;;;;;;13.68;9.27;;;;;;;;;;5031675;28;20033;-55
2021/09/23 00:47:52;;;;;;;15.45;8.43;;;;;;;;;;5031927;28;20055;-55
2021/09/23 00:50:19;;;;;;;17.00;9.13;;;;;;;;;;5031380;28;20097;-56
2021/09/23 00:52:44;;;;;;;13.00;8.13;;;;;;;;;;5033295;28;20076;-56
2021/09/23 00:55:10;;;;;;;14.45;8.30;;;;;;;;;;5035435;28;20022;-55
2021/09/23 00:57:36;;;;;;;11.57;7.93;;;;;;;;;;5035608;28;20159;-56
2021/09/23 01:00:01;;;;;;;13.65;8.45;;;;;;;;;;5035094;28;20071;-57
2021/09/23 01:02:26;;;;;;;13.63;7.82;;;;;;;;;;5035433;28;20017;-57
2021/09/23 01:04:51;;;;;;;17.90;8.88;;;;;;;;;;5035546;28;20021;-56
2021/09/23 01:07:18;;;;;;;12.07;7.53;;;;;;;;;;5017255;28;20034;-56
2021/09/23 01:09:43;;;;;;;12.45;8.30;;;;;;;;;;5035612;28;20391;-55
2021/09/23 01:12:09;;;;;;;16.67;8.85;;;;;;;;;;5034891;28;20040;-56
2021/09/23 01:14:35;;;;;;;16.88;9.27;;;;;;;;;;5035335;28;20022;-56
2021/09/23 01:17:00;;;;;;;12.23;7.97;;;;;;;;;;5034746;28;20030;-57
2021/09/23 01:19:26;;;;;;;11.65;7.45;;;;;;;;;;5035414;28;20519;-56
2021/09/23 01:21:51;;;;;;;13.48;7.30;;;;;;;;;;5034488;28;20041;-55
2021/09/23 01:24:16;;;;;;;14.15;8.80;;;;;;;;;;5035128;28;20017;-55
2021/09/23 01:26:41;;;;;;;15.18;8.20;;;;;;;;;;5034517;28;20037;-55
2021/09/23 01:29:06;;;;;;;16.38;9.38;;;;;;;;;;5034803;28;20033;-57
2021/09/23 01:31:32;;;;;;;13.93;8.57;;;;;;;;;;5034555;28;20064;-55
2021/09/23 01:33:57;;;;;;;12.57;7.68;;;;;;;;;;5034928;28;20053;-56
2021/09/23 01:36:22;;;;;;;18.13;9.45;;;;;;;;;;5034274;28;20033;-56
2021/09/23 01:38:49;;;;;;;11.02;7.43;;;;;;;;;;5034983;28;20091;-55
2021/09/23 01:41:14;;;;;;;15.52;8.57;;;;;;;;;;5034484;28;20025;-55
2021/09/23 01:43:39;;;;;;;15.13;8.40;;;;;;;;;;5034811;28;20018;-56
2021/09/23 01:46:05;;;;;;;14.23;8.98;;;;;;;;;;5034212;28;20048;-55
2021/09/23 01:48:30;;;;;;;14.35;8.60;;;;;;;;;;5034769;28;20095;-55
2021/09/23 01:50:55;;;;;;;16.33;8.88;;;;;;;;;;5034329;28;20052;-56
2021/09/23 01:53:20;;;;;;;13.55;8.23;;;;;;;;;;5034723;28;20014;-55
2021/09/23 01:55:46;;;;;;;15.82;8.88;;;;;;;;;;5034292;28;20021;-55
2021/09/23 01:58:11;;;;;;;14.68;9.07;;;;;;;;;;5034615;28;20040;-56
2021/09/23 02:00:36;;;;;;;14.70;8.32;;;;;;;;;;5034153;28;20029;-56
2021/09/23 02:03:01;;;;;;;13.32;8.10;;;;;;;;;;5034562;28;20045;-55
2021/09/23 02:05:27;;;;;;;13.18;8.43;;;;;;;;;;5030648;28;20029;-56
2021/09/23 02:07:52;;;;;;;12.82;8.13;;;;;;;;;;5014507;28;20036;-56
2021/09/23 02:10:17;;;;;;;20.40;9.15;;;;;;;;;;5014124;28;20026;-56
2021/09/23 02:12:42;;;;;;;11.95;7.60;;;;;;;;;;5014695;28;20018;-55
2021/09/23 02:15:08;;;;;;;10.75;7.70;;;;;;;;;;5014067;28;20030;-56
2021/09/23 02:17:33;;;;;;;12.38;7.45;;;;;;;;;;5014438;28;20014;-56
2021/09/23 02:19:58;;;;;;;10.98;7.53;;;;;;;;;;5014345;28;20071;-56
2021/09/23 02:22:24;;;;;;;11.77;7.18;;;;;;;;;;5013877;28;20141;-55
2021/09/23 02:24:50;;;;;;;12.43;8.13;;;;;;;;;;5014420;28;20092;-55
2021/09/23 02:27:15;;;;;;;11.18;7.75;;;;;;;;;;5014046;28;20150;-55
2021/09/23 02:29:40;;;;;;;12.88;7.07;;;;;;;;;;5014172;28;20116;-56
2021/09/23 02:32:06;;;;;;;11.93;8.07;;;;;;;;;;4996135;28;20476;-55
2021/09/23 02:34:31;;;;;;;13.75;8.05;;;;;;;;;;5014103;28;20029;-55
2021/09/23 02:36:56;;;;;;;13.55;9.02;;;;;;;;;;5013593;28;20030;-55
2021/09/23 02:39:22;;;;;;;15.40;9.00;;;;;;;;;;5032568;28;20026;-55
2021/09/23 02:41:47;;;;;;;10.93;7.93;;;;;;;;;;5015994;28;20033;-55
2021/09/23 02:44:12;;;;;;;17.10;7.80;;;;;;;;;;5033842;28;20430;-56
2021/09/23 02:46:37;;;;;;;20.25;7.28;;;;;;;;;;5033194;28;20423;-56
2021/09/23 02:49:05;;;;;;;12.52;8.38;;;;;;;;;;5033780;28;20033;-55
2021/09/23 02:51:30;;;;;;;17.42;9.27;;;;;;;;;;5033283;28;20033;-55
2021/09/23 02:53:55;;;;;;;12.20;8.38;;;;;;;;;;5033217;28;20032;-56
2021/09/23 02:56:21;;;;;;;11.77;7.78;;;;;;;;;;5033095;28;20033;-56
2021/09/23 02:58:47;;;;;;;12.05;8.18;;;;;;;;;;5033517;28;20049;-56
2021/09/23 03:01:13;;;;;;;12.43;7.85;;;;;;;;;;5032719;28;20026;-56
2021/09/23 03:03:38;;;;;;;11.45;7.57;;;;;;;;;;5033246;28;20025;-55
2021/09/23 03:06:03;;;;;;;12.25;8.68;;;;;;;;;;5032702;28;20029;-56
2021/09/23 03:08:28;;;;;;;12.63;8.40;;;;;;;;;;5033379;28;20132;-55
2021/09/23 03:10:54;;;;;;;13.18;7.63;;;;;;;;;;5033009;28;20505;-56
2021/09/23 03:13:19;;;;;;;12.63;8.25;;;;;;;;;;5033307;28;20077;-56
2021/09/23 03:15:44;;;;;;;10.60;7.63;;;;;;;;;;5032541;28;20026;-58
2021/09/23 03:18:09;;;;;;;15.07;7.88;;;;;;;;;;5033364;28;20104;-55
2021/09/23 03:20:35;;;;;;;11.25;7.07;;;;;;;;;;5032754;28;20053;-56
2021/09/23 03:23:00;;;;;;;15.55;6.93;;;;;;;;;;5032698;28;20155;-56
2021/09/23 03:25:26;;;;;;;12.07;7.47;;;;;;;;;;5032572;28;20025;-56
2021/09/23 03:27:51;;;;;;;13.07;7.15;;;;;;;;;;5032821;28;20037;-56
2021/09/23 03:30:17;;;;;;;10.90;6.82;;;;;;;;;;4998387;28;20044;-56
2021/09/23 03:32:42;;;;;;;14.57;7.22;;;;;;;;;;5033219;28;20049;-55
2021/09/23 03:35:08;;;;;;;12.20;7.63;;;;;;;;;;5014689;28;20069;-56
2021/09/23 03:37:33;;;;;;;11.63;8.00;;;;;;;;;;5032783;28;20044;-56
2021/09/23 03:39:58;;;;;;;12.65;7.70;;;;;;;;;;5032865;28;20018;-56
2021/09/23 03:42:23;;;;;;;15.75;8.48;;;;;;;;;;5032254;28;20033;-56
2021/09/23 03:44:49;;;;;;;13.52;9.02;;;;;;;;;;5032772;28;20079;-56
2021/09/23 03:47:14;;;;;;;13.45;8.43;;;;;;;;;;5014707;28;20033;-56
2021/09/23 03:49:39;;;;;;;17.35;9.02;;;;;;;;;;5032675;28;20033;-57
2021/09/23 03:52:05;;;;;;;13.98;8.80;;;;;;;;;;5032311;28;20048;-56
2021/09/23 03:54:30;;;;;;;14.27;9.10;;;;;;;;;;5032558;28;20514;-56
2021/09/23 03:56:56;;;;;;;12.95;8.07;;;;;;;;;;5032060;28;20026;-54
2021/09/23 03:59:21;;;;;;;13.20;7.93;;;;;;;;;;5032647;28;20017;-57
2021/09/23 04:01:48;;;;;;;13.63;8.55;;;;;;;;;;5032308;28;20029;-56
2021/09/23 04:04:13;;;;;;;15.27;9.13;;;;;;;;;;5015689;28;20031;-57
2021/09/23 04:06:44;;;;;;;12.70;8.07;;;;;;;;;;5032478;28;20041;-56
2021/09/23 04:09:11;;;;;;;13.13;8.32;;;;;;;;;;5032829;28;20033;-57
2021/09/23 04:11:37;;;;;;;17.77;8.20;;;;;;;;;;5032495;28;20117;-56
2021/09/23 04:14:03;;;;;;;14.38;7.97;;;;;;;;;;5032683;28;20112;-57
2021/09/23 04:16:28;;;;;;;13.00;7.95;;;;;;;;;;5032334;28;20106;-57
2021/09/23 04:18:53;;;;;;;13.68;8.02;;;;;;;;;;5032687;28;20068;-57
2021/09/23 04:21:19;;;;;;;13.57;8.60;;;;;;;;;;5014619;28;20080;-56
2021/09/23 04:23:46;;;;;;;11.40;7.60;;;;;;;;;;5032442;28;20054;-56
2021/09/23 04:26:11;;;;;;;12.23;7.53;;;;;;;;;;5032244;28;20431;-54
2021/09/23 04:28:36;;;;;;;12.00;7.72;;;;;;;;;;5035206;28;20022;-56
2021/09/23 04:31:02;;;;;;;14.95;7.47;;;;;;;;;;5036143;28;20039;-56
2021/09/23 04:33:27;;;;;;;14.90;8.57;;;;;;;;;;5036383;28;20025;-55
2021/09/23 04:35:54;;;;;;;15.07;8.63;;;;;;;;;;5035833;28;20060;-57
2021/09/23 04:38:19;;;;;;;13.95;8.65;;;;;;;;;;5036540;28;20048;-56
2021/09/23 04:40:45;;;;;;;21.75;10.70;;;;;;;;;;5035941;28;20025;-56
2021/09/23 04:43:10;;;;;;;22.75;11.68;;;;;;;;;;5036231;28;20599;-57
2021/09/23 04:45:35;;;;;;;25.02;11.73;;;;;;;;;;5035940;28;20095;-55
2021/09/23 04:48:01;;;;;;;26.85;12.43;;;;;;;;;;5036289;28;20459;-57
2021/09/23 04:50:27;;;;;;;15.25;9.60;;;;;;;;;;5022423;28;20026;-56
2021/09/23 04:52:52;;;;;;;13.73;9.38;;;;;;;;;;4998948;28;20056;-55
2021/09/23 04:55:17;;;;;;;18.52;9.05;;;;;;;;;;5033938;28;20024;-56
2021/09/23 04:57:42;;;;;;;13.25;7.65;;;;;;;;;;5018135;28;20056;-56
2021/09/23 05:00:08;;;;;;;13.55;8.30;;;;;;;;;;5035393;28;20025;-56
2021/09/23 05:02:33;;;;;;;13.98;8.98;;;;;;;;;;5017822;28;20160;-57
2021/09/23 05:04:59;;;;;;;17.27;9.05;;;;;;;;;;5035845;28;20018;-57
2021/09/23 05:07:24;;;;;;;13.75;8.65;;;;;;;;;;5001312;28;20487;-57
2021/09/23 05:09:49;;;;;;;13.05;8.85;;;;;;;;;;5035788;28;20033;-56
2021/09/23 05:12:14;;;;;;;11.23;7.47;;;;;;;;;;5035188;28;20040;-56
2021/09/23 05:14:39;;;;;;;11.90;7.40;;;;;;;;;;5035925;28;20029;-57
2021/09/23 05:17:06;;;;;;;12.90;8.30;;;;;;;;;;5035275;28;20471;-57
2021/09/23 05:19:31;;;;;;;15.50;8.25;;;;;;;;;;5035323;28;20024;-56
2021/09/23 05:21:56;;;;;;;28.95;8.27;;;;;;;;;;5035011;28;20049;-57
2021/09/23 05:24:21;;;;;;;28.70;8.35;;;;;;;;;;5035695;28;20041;-57
2021/09/23 05:26:47;;;;;;;15.73;9.52;;;;;;;;;;5035150;28;20116;-55
2021/09/23 05:29:12;;;;;;;16.73;9.73;;;;;;;;;;5017892;28;20068;-56
2021/09/23 05:31:37;;;;;;;19.02;9.20;;;;;;;;;;5034987;28;20028;-58
2021/09/23 05:34:03;;;;;;;41.70;10.80;;;;;;;;;;5035619;28;20057;-56
2021/09/23 05:36:28;;;;;;;70.13;11.50;;;;;;;;;;5017171;28;20030;-57
2021/09/23 05:38:53;;;;;;;100.80;10.95;;;;;;;;;;5033943;28;20075;-56
2021/09/23 05:41:18;;;;;;;106.32;10.70;;;;;;;;;;5034711;28;20034;-55
2021/09/23 05:43:44;;;;;;;121.90;10.85;;;;;;;;;;5017445;28;20112;-57
2021/09/23 05:46:09;;;;;;;88.38;10.88;;;;;;;;;;5034725;28;20060;-56
2021/09/23 05:48:34;;;;;;;118.15;12.20;;;;;;;;;;5035027;28;20112;-55
2021/09/23 05:50:59;;;;;;;57.03;10.25;;;;;;;;;;5034476;28;20040;-56
2021/09/23 05:53:25;;;;;;;101.97;10.73;;;;;;;;;;5035123;28;20030;-55
2021/09/23 05:55:50;;;;;;;67.55;10.77;;;;;;;;;;5034660;28;20376;-56
2021/09/23 05:58:15;;;;;;;47.30;8.70;;;;;;;;;;5034961;28;20026;-57
2021/09/23 06:00:40;;;;;;;24.20;7.50;;;;;;;;;;5034443;28;20497;-56
2021/09/23 06:03:06;;;;;;;37.90;7.88;;;;;;;;;;5035023;28;20024;-58
2021/09/23 06:05:31;;;;;;;50.33;7.38;;;;;;;;;;5034394;28;20049;-57
2021/09/23 06:07:56;;;;;;;51.88;7.63;;;;;;;;;;5016948;28;20017;-57
2021/09/23 06:10:21;;;;;;;23.17;7.45;;;;;;;;;;5034226;28;20061;-57
2021/09/23 06:12:47;;;;;;;19.92;7.15;;;;;;;;;;5034650;28;20024;-56
2021/09/23 06:15:12;;;;;;;43.78;8.43;;;;;;;;;;5034084;28;20025;-56
2021/09/23 06:17:39;;;;;;;77.72;8.27;;;;;;;;;;5034467;28;20072;-57
2021/09/23 06:20:05;;;;;;;47.67;8.30;;;;;;;;;;5034149;28;20387;-57
2021/09/23 06:22:30;;;;;;;109.47;9.63;;;;;;;;;;5034283;28;20041;-58
2021/09/23 06:24:55;;;;;;;61.83;8.80;;;;;;;;;;5034443;28;20100;-56
2021/09/23 06:27:20;;;;;;;67.18;7.00;;;;;;;;;;5033879;28;20103;-55
2021/09/23 06:29:46;;;;;;;53.15;7.65;;;;;;;;;;5034090;28;20040;-55
2021/09/23 06:32:11;;;;;;;102.38;8.65;;;;;;;;;;5033827;28;20364;-56
2021/09/23 06:34:36;;;;;;;97.60;8.15;;;;;;;;;;5034313;28;20527;-56
2021/09/23 06:37:02;;;;;;;56.55;7.60;;;;;;;;;;5033831;28;20026;-56
2021/09/23 06:39:27;;;;;;;63.10;8.05;;;;;;;;;;5034130;28;20024;-57
2021/09/23 06:41:53;;;;;;;119.18;9.50;;;;;;;;;;5033543;28;20033;-56
2021/09/23 06:44:18;;;;;;;109.30;9.35;;;;;;;;;;5033850;28;20028;-56
2021/09/23 06:46:43;;;;;;;115.10;9.18;;;;;;;;;;5033698;28;20033;-59
2021/09/23 06:49:08;;;;;;;69.18;9.20;;;;;;;;;;5034083;28;20033;-58
2021/09/23 06:51:34;;;;;;;67.70;8.85;;;;;;;;;;5033191;28;20033;-57
2021/09/23 06:53:59;;;;;;;59.88;8.32;;;;;;;;;;5024055;28;20029;-58
2021/09/23 06:56:24;;;;;;;54.28;8.52;;;;;;;;;;5013732;28;20057;-56
2021/09/23 06:58:50;;;;;;;88.47;9.68;;;;;;;;;;5014004;28;20571;-59
2021/09/23 07:01:15;;;;;;;137.90;10.10;;;;;;;;;;5013437;28;20030;-57
2021/09/23 07:03:40;;;;;;;205.65;9.68;;;;;;;;;;5014147;28;20049;-58
2021/09/23 07:06:05;;;;;;;107.15;9.48;;;;;;;;;;5033002;28;20037;-57
2021/09/23 07:08:31;;;;;;;122.20;9.50;;;;;;;;;;5033168;28;20344;-57
2021/09/23 07:10:56;;;;;;;63.00;8.85;;;;;;;;;;5032984;28;20491;-57
2021/09/23 07:13:21;;;;;;;85.38;9.38;;;;;;;;;;5033702;28;20017;-57
2021/09/23 07:15:46;;;;;;;46.22;8.45;;;;;;;;;;5033099;28;20427;-57
2021/09/23 07:18:11;;;;;;;60.35;8.82;;;;;;;;;;5015648;28;20018;-57
2021/09/23 07:20:37;;;;;;;26.95;8.10;;;;;;;;;;5032552;28;20113;-57
2021/09/23 07:23:02;;;;;;;24.63;8.15;;;;;;;;;;5033209;28;20384;-57
2021/09/23 07:25:28;;;;;;;23.95;7.50;;;;;;;;;;5032997;28;20423;-58
2021/09/23 07:27:53;;;;;;;33.15;8.48;;;;;;;;;;5033434;28;20033;-58
2021/09/23 07:30:19;;;;;;;43.42;10.07;;;;;;;;;;5015025;28;20112;-57
2021/09/23 07:32:44;;;;;;;35.25;8.43;;;;;;;;;;5033120;28;20450;-56
2021/09/23 07:35:09;;;;;;;15.80;7.00;;;;;;;;;;5032654;28;20033;-57
2021/09/23 07:37:34;;;;;;;12.68;5.65;;;;;;;;;;5033186;28;20018;-57
2021/09/23 07:40:00;;;;;;;10.55;6.03;;;;;;;;;;5033031;28;20029;-56
2021/09/23 07:42:25;;;;;;;14.50;5.97;;;;;;;;;;5032504;28;20384;-56
2021/09/23 07:44:50;;;;;;;15.25;5.82;;;;;;;;;;5033246;28;20378;-56
2021/09/23 07:47:15;;;;;;;17.52;6.00;;;;;;;;;;5032446;28;20390;-56
2021/09/23 07:49:41;;;;;;;13.90;6.05;;;;;;;;;;5033040;28;20060;-56
2021/09/23 07:52:06;;;;;;;10.35;5.18;;;;;;;;;;5032579;28;20387;-59
2021/09/23 07:54:32;;;;;;;9.85;5.50;;;;;;;;;;5033078;28;20018;-58
2021/09/23 07:56:57;;;;;;;9.52;5.43;;;;;;;;;;5032539;28;20537;-58
2021/09/23 07:59:22;;;;;;;8.02;5.03;;;;;;;;;;5033094;28;20025;-57
2021/09/23 08:01:47;;;;;;;10.73;5.28;;;;;;;;;;5032466;28;20030;-58
2021/09/23 08:04:13;;;;;;;11.70;6.35;;;;;;;;;;5036948;28;20033;-57
2021/09/23 08:06:38;;;;;;;15.15;5.97;;;;;;;;;;5036486;28;20121;-56
2021/09/23 08:09:03;;;;;;;14.25;7.15;;;;;;;;;;5036802;28;20025;-55
2021/09/23 08:11:28;;;;;;;14.05;6.68;;;;;;;;;;5036333;28;20113;-57
2021/09/23 08:13:54;;;;;;;12.55;8.30;;;;;;;;;;5036724;28;20471;-58
2021/09/23 08:16:19;;;;;;;14.52;6.53;;;;;;;;;;5036348;28;20124;-57
2021/09/23 08:18:45;;;;;;;17.25;6.47;;;;;;;;;;5036849;28;20059;-57
2021/09/23 08:21:10;;;;;;;17.60;6.50;;;;;;;;;;5036278;28;20116;-56
2021/09/23 08:23:35;;;;;;;19.67;6.28;;;;;;;;;;5036445;28;20144;-57
2021/09/23 08:26:00;;;;;;;22.30;7.22;;;;;;;;;;5036012;28;20116;-57
2021/09/23 08:28:31;;;;;;;18.80;7.47;;;;;;;;;;5036773;28;20493;-57
2021/09/23 08:30:56;;;;;;;25.10;7.85;;;;;;;;;;5036139;28;20030;-57
2021/09/23 08:33:22;;;;;;;24.50;7.40;;;;;;;;;;5036656;28;20013;-57
2021/09/23 08:35:47;;;;;;;17.35;6.95;;;;;;;;;;5035933;28;20434;-57
2021/09/23 08:38:12;;;;;;;19.52;6.95;;;;;;;;;;5036297;28;20032;-57
2021/09/23 08:40:38;;;;;;;27.85;6.60;;;;;;;;;;5018181;28;20044;-57
2021/09/23 08:43:03;;;;;;;20.13;6.18;;;;;;;;;;5036413;28;20064;-57
2021/09/23 08:45:29;;;;;;;26.75;7.00;;;;;;;;;;5035971;28;20388;-57
2021/09/23 08:47:54;;;;;;;22.00;7.30;;;;;;;;;;5036283;28;20562;-57
2021/09/23 08:50:19;;;;;;;21.80;6.95;;;;;;;;;;5017958;28;20099;-57
2021/09/23 08:52:44;;;;;;;22.75;6.55;;;;;;;;;;5036223;28;20317;-57
2021/09/23 08:55:19;;;;;;;20.35;6.10;;;;;;;;;;5035542;28;20026;-58
2021/09/23 08:57:44;;;;;;;26.10;7.28;;;;;;;;;;5018255;28;20112;-57
2021/09/23 09:00:10;;;;;;;25.00;6.90;;;;;;;;;;5035657;28;20049;-57
2021/09/23 09:02:35;;;;;;;39.20;7.88;;;;;;;;;;5035719;28;20025;-57
2021/09/23 09:05:01;;;;;;;33.47;8.68;;;;;;;;;;5035467;28;20108;-57
2021/09/23 09:07:28;;;;;;;35.42;7.13;;;;;;;;;;5018152;28;20032;-57
2021/09/23 09:09:59;;;;;;;48.83;7.55;;;;;;;;;;5035125;28;20025;-57
2021/09/23 09:12:24;;;;;;;32.55;7.90;;;;;;;;;;5035185;28;20034;-57
2021/09/23 09:14:50;;;;;;;39.55;7.38;;;;;;;;;;5017490;28;20040;-57
2021/09/23 09:17:16;;;;;;;46.10;8.00;;;;;;;;;;5035144;28;20022;-57
2021/09/23 09:19:42;;;;;;;48.83;7.07;;;;;;;;;;5035675;28;20022;-57
2021/09/23 09:22:08;;;;;;;45.17;7.53;;;;;;;;;;5013724;28;20042;-57
2021/09/23 09:24:36;;;;;;;27.77;7.40;;;;;;;;;;5014747;28;20357;-57
2021/09/23 09:27:01;;;;;;;36.50;8.00;;;;;;;;;;5015295;28;20038;-58
2021/09/23 09:29:26;;;;;;;30.52;6.93;;;;;;;;;;5014391;28;20495;-57
2021/09/23 09:31:52;;;;;;;26.58;6.60;;;;;;;;;;5013917;28;20026;-57
2021/09/23 09:34:18;;;;;;;27.70;7.30;;;;;;;;;;5000301;28;20027;-57
2021/09/23 09:36:50;;;;;;;26.05;6.95;;;;;;;;;;4995549;28;20034;-56
2021/09/23 09:39:16;;;;;;;33.63;6.90;;;;;;;;;;4995769;28;20030;-56
2021/09/23 09:41:43;;;;;;;26.50;6.63;;;;;;;;;;4995547;28;20060;-56
2021/09/23 09:44:09;;;;;;;21.20;6.45;;;;;;;;;;4994477;28;20022;-56
2021/09/23 09:46:35;;;;;;;25.48;6.78;;;;;;;;;;4995274;28;20057;-58
2021/09/23 09:49:00;;;;;;;20.38;6.22;;;;;;;;;;4995607;28;20034;-57
2021/09/23 09:51:46;;;;;;;18.70;4.57;;;;;;;;;;4993626;28;20057;-56
2021/09/23 09:54:12;;;;;;;7.15;3.88;;;;;;;;;;4995576;28;20113;-56
2021/09/23 09:56:40;;;;;;;6.88;3.20;;;;;;;;;;4995115;28;20113;-56
2021/09/23 09:59:06;;;;;;;5.72;3.38;;;;;;;;;;4995428;28;20022;-56
2021/09/23 10:01:31;;;;;;;10.07;3.78;;;;;;;;;;5005775;28;20432;-56
2021/09/23 10:03:57;;;;;;;4.82;3.25;;;;;;;;;;5014818;28;20433;-56
2021/09/23 10:06:22;;;;;;;5.05;3.40;;;;;;;;;;5014763;28;20026;-56
2021/09/23 10:08:47;;;;;;;6.00;3.80;;;;;;;;;;5014585;28;20034;-56
2021/09/23 10:11:12;;;;;;;10.63;3.80;;;;;;;;;;5013218;28;20053;-56
2021/09/23 10:13:38;;;;;;;8.48;3.95;;;;;;;;;;5014776;28;20095;-56
2021/09/23 10:16:03;;;;;;;7.70;3.45;;;;;;;;;;5013271;28;20045;-56
2021/09/23 10:18:28;;;;;;;6.63;3.67;;;;;;;;;;5014576;28;20014;-56
2021/09/23 10:20:53;;;;;;;7.78;3.67;;;;;;;;;;5012698;28;20030;-56
2021/09/23 10:23:19;;;;;;;4.63;3.20;;;;;;;;;;5028234;28;20313;-56
2021/09/23 10:25:44;;;;;;;7.93;3.80;;;;;;;;;;5033021;28;20034;-56
2021/09/23 10:28:10;;;;;;;5.03;3.17;;;;;;;;;;5034029;28;20021;-56
2021/09/23 10:30:37;;;;;;;5.95;3.38;;;;;;;;;;5016281;28;20045;-56
2021/09/23 10:33:02;;;;;;;7.00;3.53;;;;;;;;;;5034118;28;20380;-56
2021/09/23 10:35:27;;;;;;;8.15;3.33;;;;;;;;;;5033860;28;20025;-56
2021/09/23 10:37:53;;;;;;;5.63;2.80;;;;;;;;;;5033988;28;20072;-56
2021/09/23 10:40:18;;;;;;;7.30;3.58;;;;;;;;;;5033463;28;20043;-56
2021/09/23 10:42:44;;;;;;;8.05;3.35;;;;;;;;;;4999882;28;20025;-56
2021/09/23 10:45:09;;;;;;;5.72;3.40;;;;;;;;;;5033334;28;20032;-56
2021/09/23 10:47:35;;;;;;;6.25;3.10;;;;;;;;;;5033722;28;20475;-56
2021/09/23 10:50:01;;;;;;;6.20;3.10;;;;;;;;;;5033400;28;20030;-56
2021/09/23 10:52:30;;;;;;;5.38;3.10;;;;;;;;;;5033769;28;20025;-56
2021/09/23 10:54:55;;;;;;;5.88;3.60;;;;;;;;;;5033594;28;20072;-56
2021/09/23 10:57:21;;;;;;;7.15;3.30;;;;;;;;;;5033179;28;20034;-56
2021/09/23 10:59:49;;;;;;;5.03;3.20;;;;;;;;;;5033534;28;20017;-56
2021/09/23 11:02:21;;;;;;;7.47;3.30;;;;;;;;;;5032967;28;20120;-57
2021/09/23 11:04:48;;;;;;;5.68;3.55;;;;;;;;;;5033367;28;20028;-56
2021/09/23 11:07:13;;;;;;;6.43;3.50;;;;;;;;;;5032914;28;20037;-56
2021/09/23 11:09:38;;;;;;;7.95;3.35;;;;;;;;;;5015213;28;20029;-56
2021/09/23 11:12:05;;;;;;;15.57;3.38;;;;;;;;;;5015294;28;20052;-56
2021/09/23 11:14:32;;;;;;;8.98;3.10;;;;;;;;;;5033088;28;20483;-56
2021/09/23 11:16:58;;;;;;;7.45;2.90;;;;;;;;;;5032677;28;20475;-56
2021/09/23 11:19:24;;;;;;;7.13;3.10;;;;;;;;;;5033143;28;20029;-56
2021/09/23 11:21:50;;;;;;;11.50;3.20;;;;;;;;;;5032694;28;20030;-56
2021/09/23 11:24:15;;;;;;;40.42;4.55;;;;;;;;;;4998921;28;20037;-56
2021/09/23 11:26:41;;;;;;;7.32;3.10;;;;;;;;;;5032740;28;20113;-56
2021/09/23 11:29:06;;;;;;;16.15;4.20;;;;;;;;;;5033022;28;20107;-56
2021/09/23 11:31:50;;;;;;;6.75;3.47;;;;;;;;;;5032685;28;20116;-55
2021/09/23 11:34:32;;;;;;;6.32;3.40;;;;;;;;;;5033065;28;20029;-55
2021/09/23 11:36:57;;;;;;;5.20;3.40;;;;;;;;;;5032518;28;20033;-56
2021/09/23 11:39:22;;;;;;;5.55;3.30;;;;;;;;;;5032940;28;20471;-55
2021/09/23 11:42:06;;;;;;;7.85;4.05;;;;;;;;;;5032479;28;20033;-55
2021/09/23 11:44:31;;;;;;;6.60;3.60;;;;;;;;;;5029709;28;20467;-57
2021/09/23 11:46:57;;;;;;;6.55;3.35;;;;;;;;;;5032358;28;20061;-59
2021/09/23 11:49:22;;;;;;;7.85;3.40;;;;;;;;;;5032864;28;20510;-56
2021/09/23 11:51:47;;;;;;;9.13;3.40;;;;;;;;;;5032367;28;20435;-56
2021/09/23 11:54:13;;;;;;;6.13;3.55;;;;;;;;;;5015006;28;20387;-55
2021/09/23 11:56:42;;;;;;;5.15;3.47;;;;;;;;;;5032231;28;20030;-56
2021/09/23 11:59:07;;;;;;;7.47;3.28;;;;;;;;;;5032875;28;20022;-58
2021/09/23 12:01:32;;;;;;;7.80;3.58;;;;;;;;;;5030876;28;20030;-56
2021/09/23 12:03:57;;;;;;;6.00;3.65;;;;;;;;;;5032550;28;20021;-57
2021/09/23 12:06:22;;;;;;;7.32;3.30;;;;;;;;;;5032320;28;20049;-56
2021/09/23 12:08:47;;;;;;;7.10;3.53;;;;;;;;;;5032373;28;20486;-56
2021/09/23 12:11:13;;;;;;;6.43;3.28;;;;;;;;;;5031584;28;20080;-56
2021/09/23 12:13:38;;;;;;;6.57;3.30;;;;;;;;;;5032138;28;20121;-56
2021/09/23 12:16:05;;;;;;;8.55;3.65;;;;;;;;;;5031961;28;20075;-56
2021/09/23 12:18:30;;;;;;;6.57;3.17;;;;;;;;;;5032435;28;20014;-57
2021/09/23 12:20:56;;;;;;;6.97;2.83;;;;;;;;;;5032139;28;20060;-57
2021/09/23 12:23:22;;;;;;;5.22;3.30;;;;;;;;;;5032193;28;20088;-57
2021/09/23 12:26:06;;;;;;;7.88;3.50;;;;;;;;;;5031962;28;20121;-57
2021/09/23 12:28:32;;;;;;;8.40;3.70;;;;;;;;;;5032152;28;20025;-56
2021/09/23 12:30:59;;;;;;;8.30;3.60;;;;;;;;;;5014272;28;20084;-56
2021/09/23 12:33:24;;;;;;;5.95;3.10;;;;;;;;;;5032220;28;20108;-57
2021/09/23 12:36:05;;;;;;;5.63;3.20;;;;;;;;;;5031870;28;20045;-58
2021/09/23 12:38:30;;;;;;;8.15;3.17;;;;;;;;;;5032568;28;20025;-57
2021/09/23 12:40:55;;;;;;;5.70;3.08;;;;;;;;;;5014591;28;20030;-57
2021/09/23 12:43:21;;;;;;;3.63;2.13;;;;;;;;;;5014737;28;20021;-57
2021/09/23 12:46:05;;;;;;;4.22;2.20;;;;;;;;;;5014327;28;20395;-55
2021/09/23 12:48:30;;;;;;;5.38;2.30;;;;;;;;;;5033095;28;20468;-57
2021/09/23 12:50:55;;;;;;;8.82;2.90;;;;;;;;;;5017779;28;20079;-57
2021/09/23 12:53:20;;;;;;;5.82;2.95;;;;;;;;;;5035827;28;20028;-57
2021/09/23 12:55:46;;;;;;;7.03;2.30;;;;;;;;;;5035194;28;20022;-56
2021/09/23 12:58:18;;;;;;;4.50;2.13;;;;;;;;;;5035705;28;20029;-57
2021/09/23 13:00:43;;;;;;;6.80;2.00;;;;;;;;;;5035352;28;20056;-56
2021/09/23 13:03:09;;;;;;;5.47;2.30;;;;;;;;;;5035211;28;20108;-56
2021/09/23 13:05:35;;;;;;;5.63;2.35;;;;;;;;;;5035235;28;20472;-57
2021/09/23 13:08:07;;;;;;;5.28;2.38;;;;;;;;;;5035674;28;20021;-56
2021/09/23 13:10:32;;;;;;;4.88;2.20;;;;;;;;;;5035049;28;20030;-56
2021/09/23 13:13:01;;;;;;;12.57;2.45;;;;;;;;;;5035508;28;20108;-57
2021/09/23 13:15:27;;;;;;;5.35;2.20;;;;;;;;;;5034937;28;20053;-57
2021/09/23 13:18:01;;;;;;;6.15;2.40;;;;;;;;;;5035474;28;20415;-57
2021/09/23 13:20:27;;;;;;;4.72;2.50;;;;;;;;;;5017219;28;20036;-57
2021/09/23 13:22:52;;;;;;;5.63;2.42;;;;;;;;;;5035002;28;20463;-57
2021/09/23 13:25:17;;;;;;;4.10;2.45;;;;;;;;;;5035004;28;20017;-57
2021/09/23 13:27:43;;;;;;;8.57;5.15;;;;;;;;;;5035220;28;20364;-57
2021/09/23 13:30:12;;;;;;;10.30;4.00;;;;;;;;;;5034589;28;20479;-57
2021/09/23 13:32:38;;;;;;;5.72;2.70;;;;;;;;;;5034965;28;20060;-56
2021/09/23 13:35:04;;;;;;;5.38;2.28;;;;;;;;;;5033415;28;20036;-57
2021/09/23 13:37:29;;;;;;;4.85;2.15;;;;;;;;;;5034979;28;20485;-57
2021/09/23 13:39:54;;;;;;;5.65;2.58;;;;;;;;;;5035155;28;20021;-57
2021/09/23 13:42:20;;;;;;;8.02;2.42;;;;;;;;;;5031447;28;20030;-56
2021/09/23 13:44:45;;;;;;;4.28;2.30;;;;;;;;;;5035058;28;20033;-57
2021/09/23 13:47:10;;;;;;;5.15;2.25;;;;;;;;;;5034444;28;20068;-56
2021/09/23 13:49:35;;;;;;;19.45;2.80;;;;;;;;;;5034935;28;20072;-57
2021/09/23 13:52:00;;;;;;;5.80;2.20;;;;;;;;;;5034494;28;20030;-57
2021/09/23 13:54:26;;;;;;;4.53;2.22;;;;;;;;;;5034953;28;20028;-57
2021/09/23 13:56:51;;;;;;;7.82;2.22;;;;;;;;;;5034972;28;20030;-57
2021/09/23 13:59:17;;;;;;;6.03;2.45;;;;;;;;;;5035035;28;20068;-57
2021/09/23 14:01:43;;;;;;;4.47;2.25;;;;;;;;;;5034121;28;20109;-57
2021/09/23 14:04:08;;;;;;;5.30;2.40;;;;;;;;;;5035460;28;20189;-61
2021/09/23 14:06:36;;;;;;;5.05;2.15;;;;;;;;;;5034073;28;20495;-60
2021/09/23 14:09:01;;;;;;;15.20;3.97;;;;;;;;;;5034416;28;20110;-57
2021/09/23 14:11:27;;;;;;;3.72;2.10;;;;;;;;;;5034010;28;20120;-57
2021/09/23 14:13:52;;;;;;;10.38;2.08;;;;;;;;;;5034519;28;20033;-57
2021/09/23 14:16:17;;;;;;;2.88;1.90;;;;;;;;;;5034042;28;20037;-57
2021/09/23 14:18:42;;;;;;;8.48;2.30;;;;;;;;;;5034546;28;20101;-57
2021/09/23 14:21:08;;;;;;;4.45;2.35;;;;;;;;;;5033608;28;20103;-57
2021/09/23 14:23:33;;;;;;;5.40;2.78;;;;;;;;;;5033806;28;20080;-57
2021/09/23 14:25:58;;;;;;;5.70;3.40;;;;;;;;;;5033848;28;20033;-60